Time;durP1;ratioP1;P1;durP2;ratioP2;P2;SDS_P1;SDS_P2;PMS_P1;PMS_P2;Temp;Humidity;BMP_temperature;BMP_pressure;BME280_temperature;BME280_humidity;BME280_pressure;Samples;Min_cycle;Max_cycle;Signal;HPM_P1;HPM_P2
2023/12/28 00:00:06;;;;;;;13.27;7.75;;;;;;;;;;6277050;28;20054;-76
2023/12/28 00:03:08;;;;;;;11.88;7.53;;;;;;;;;;6296978;28;20078;-75
2023/12/28 00:06:12;;;;;;;13.30;6.85;;;;;;;;;;6309505;28;20350;-75
2023/12/28 00:09:16;;;;;;;15.77;9.05;;;;;;;;;;6329608;28;20036;-76
2023/12/28 00:12:18;;;;;;;11.45;7.95;;;;;;;;;;6326889;28;20549;-75
2023/12/28 00:15:21;;;;;;;15.05;7.82;;;;;;;;;;6275460;28;20104;-75
2023/12/28 00:18:23;;;;;;;11.77;6.85;;;;;;;;;;6294026;28;20052;-75
2023/12/28 00:21:26;;;;;;;11.80;7.43;;;;;;;;;;6305478;28;20056;-74
2023/12/28 00:24:28;;;;;;;12.52;7.07;;;;;;;;;;6309236;28;20051;-75
2023/12/28 00:27:30;;;;;;;33.45;22.30;;;;;;;;;;6287941;28;20498;-75
2023/12/28 00:30:35;;;;;;;39.65;24.13;;;;;;;;;;6311254;28;20064;-75
2023/12/28 00:33:37;;;;;;;30.90;18.77;;;;;;;;;;6322633;28;20943;-75
2023/12/28 00:36:40;;;;;;;31.98;16.10;;;;;;;;;;6321752;28;20438;-73
2023/12/28 00:39:42;;;;;;;24.95;13.07;;;;;;;;;;6301122;28;20040;-74
2023/12/28 00:42:44;;;;;;;17.17;10.32;;;;;;;;;;6292283;28;20160;-74
2023/12/28 00:45:47;;;;;;;22.70;10.38;;;;;;;;;;6253980;28;20039;-73
2023/12/28 00:48:49;;;;;;;16.60;10.20;;;;;;;;;;6292494;28;20044;-73
2023/12/28 00:51:51;;;;;;;20.80;11.23;;;;;;;;;;6286418;28;20636;-73
2023/12/28 00:54:53;;;;;;;18.17;9.90;;;;;;;;;;6307288;28;20089;-74
2023/12/28 00:57:55;;;;;;;16.08;10.10;;;;;;;;;;6302063;28;20046;-75
2023/12/28 01:00:58;;;;;;;17.65;9.55;;;;;;;;;;6303434;28;20060;-75
2023/12/28 01:04:04;;;;;;;16.52;10.77;;;;;;;;;;6297733;28;20043;-75
2023/12/28 01:07:06;;;;;;;18.42;9.90;;;;;;;;;;6303645;28;20475;-74
2023/12/28 01:10:08;;;;;;;18.48;8.75;;;;;;;;;;6319710;28;20616;-73
2023/12/28 01:13:12;;;;;;;17.70;9.48;;;;;;;;;;6299889;28;20714;-74
2023/12/28 01:16:14;;;;;;;21.60;9.85;;;;;;;;;;6319979;28;20200;-74
2023/12/28 01:19:16;;;;;;;15.63;9.70;;;;;;;;;;6313533;28;20707;-74
2023/12/28 01:22:19;;;;;;;14.70;8.90;;;;;;;;;;6301616;28;20052;-73
2023/12/28 01:25:21;;;;;;;14.02;7.88;;;;;;;;;;6270202;28;20044;-74
2023/12/28 01:28:23;;;;;;;14.07;8.98;;;;;;;;;;6298380;28;20048;-74
2023/12/28 01:31:26;;;;;;;13.43;8.48;;;;;;;;;;6320148;28;20052;-73
2023/12/28 01:34:29;;;;;;;15.32;8.48;;;;;;;;;;6281632;28;20097;-74
2023/12/28 01:37:33;;;;;;;13.18;8.38;;;;;;;;;;6283171;28;20713;-75
2023/12/28 01:40:35;;;;;;;15.32;7.85;;;;;;;;;;6299603;28;20058;-75
2023/12/28 01:43:37;;;;;;;15.10;8.23;;;;;;;;;;6319807;28;20058;-74
2023/12/28 01:46:40;;;;;;;13.90;8.20;;;;;;;;;;6300727;28;20055;-73
2023/12/28 01:49:43;;;;;;;14.93;8.00;;;;;;;;;;6296234;28;20073;-74
2023/12/28 01:52:46;;;;;;;14.50;8.88;;;;;;;;;;6297528;28;20043;-74
2023/12/28 01:55:48;;;;;;;16.00;8.20;;;;;;;;;;6321506;28;20549;-75
2023/12/28 01:58:52;;;;;;;14.20;8.82;;;;;;;;;;6281589;28;20166;-75
2023/12/28 02:01:55;;;;;;;16.55;9.23;;;;;;;;;;6282702;28;20094;-74
2023/12/28 02:04:58;;;;;;;16.33;10.85;;;;;;;;;;6280027;28;20075;-74
2023/12/28 02:08:00;;;;;;;11.82;7.65;;;;;;;;;;6281516;28;20052;-74
2023/12/28 02:11:04;;;;;;;12.65;7.97;;;;;;;;;;6313638;28;20039;-74
2023/12/28 02:14:06;;;;;;;17.50;9.95;;;;;;;;;;6301537;28;20609;-75
2023/12/28 02:17:24;;;;;;;14.30;7.55;;;;;;;;;;6299102;28;20537;-74
2023/12/28 02:20:27;;;;;;;;;;;;;;;;;;6280239;28;20040;-75
2023/12/28 02:23:28;;;;;;;14.50;8.68;;;;;;;;;;6302309;28;19952;-75
2023/12/28 02:26:31;;;;;;;11.88;7.68;;;;;;;;;;6282838;28;20109;-76
2023/12/28 02:29:33;;;;;;;15.75;7.90;;;;;;;;;;6275507;28;20044;-75
2023/12/28 02:32:50;;;;;;;13.10;7.88;;;;;;;;;;6326090;28;20598;-75
2023/12/28 02:36:07;;;;;;;11.52;6.95;;;;;;;;;;6293243;28;20134;-74
2023/12/28 02:39:11;;;;;;;13.20;9.90;;;;;;;;;;6295704;28;20044;-74
2023/12/28 02:42:13;;;;;;;12.23;7.85;;;;;;;;;;6307180;28;20052;-75
2023/12/28 02:45:17;;;;;;;11.13;7.43;;;;;;;;;;6313483;28;20145;-75
2023/12/28 02:48:20;;;;;;;13.93;6.47;;;;;;;;;;6316308;28;20047;-75
2023/12/28 02:51:22;;;;;;;12.90;7.70;;;;;;;;;;6277393;28;20123;-75
2023/12/28 02:54:25;;;;;;;19.13;7.70;;;;;;;;;;6310347;28;20067;-75
2023/12/28 02:57:27;;;;;;;15.70;8.85;;;;;;;;;;6302140;28;20044;-74
2023/12/28 03:00:29;;;;;;;15.07;8.82;;;;;;;;;;6296358;28;20225;-75
2023/12/28 03:03:31;;;;;;;17.08;8.68;;;;;;;;;;6301603;28;20538;-75
2023/12/28 03:06:35;;;;;;;19.83;9.45;;;;;;;;;;6291945;28;20046;-75
2023/12/28 03:09:38;;;;;;;11.82;7.07;;;;;;;;;;6315856;28;20036;-74
2023/12/28 03:12:40;;;;;;;12.93;7.18;;;;;;;;;;6315883;28;20051;-74
2023/12/28 03:15:43;;;;;;;16.17;8.43;;;;;;;;;;6303946;28;20510;-75
2023/12/28 03:18:47;;;;;;;14.23;7.53;;;;;;;;;;6322765;28;20048;-74
2023/12/28 03:21:49;;;;;;;13.02;7.25;;;;;;;;;;6299722;28;20582;-74
2023/12/28 03:24:51;;;;;;;12.38;7.50;;;;;;;;;;6282067;28;20102;-75
2023/12/28 03:27:54;;;;;;;11.85;8.80;;;;;;;;;;6291125;28;20050;-75
2023/12/28 03:30:58;;;;;;;17.80;7.30;;;;;;;;;;6321918;28;20073;-75
2023/12/28 03:34:02;;;;;;;13.55;6.93;;;;;;;;;;6316800;28;20048;-75
2023/12/28 03:37:04;;;;;;;11.18;7.07;;;;;;;;;;6304600;28;20147;-75
2023/12/28 03:40:08;;;;;;;11.65;7.43;;;;;;;;;;6278785;28;20098;-75
2023/12/28 03:43:10;;;;;;;11.85;6.32;;;;;;;;;;6302028;28;20135;-75
2023/12/28 03:46:13;;;;;;;9.75;5.80;;;;;;;;;;6324346;28;20048;-75
2023/12/28 03:49:17;;;;;;;9.13;6.32;;;;;;;;;;6299823;28;20035;-75
2023/12/28 03:52:19;;;;;;;12.93;6.93;;;;;;;;;;6338380;28;20056;-75
2023/12/28 03:55:22;;;;;;;11.70;7.90;;;;;;;;;;6313469;28;20059;-75
2023/12/28 03:58:24;;;;;;;8.85;6.40;;;;;;;;;;6299075;28;20105;-75
2023/12/28 04:01:26;;;;;;;10.88;6.20;;;;;;;;;;6294084;28;20734;-76
2023/12/28 04:04:28;;;;;;;9.35;6.45;;;;;;;;;;6303564;28;20051;-75
2023/12/28 04:07:30;;;;;;;23.77;14.15;;;;;;;;;;6273879;28;20450;-75
2023/12/28 04:10:33;;;;;;;19.95;11.43;;;;;;;;;;6329302;28;20165;-75
2023/12/28 04:13:35;;;;;;;16.73;8.70;;;;;;;;;;6283550;28;20051;-75
2023/12/28 04:16:38;;;;;;;23.15;12.52;;;;;;;;;;6280808;28;20056;-75
2023/12/28 04:19:40;;;;;;;17.70;11.05;;;;;;;;;;6314536;28;20450;-75
2023/12/28 04:22:43;;;;;;;17.90;10.95;;;;;;;;;;6298077;28;20048;-74
2023/12/28 04:25:45;;;;;;;20.90;12.60;;;;;;;;;;6296727;28;20519;-75
2023/12/28 04:28:47;;;;;;;16.58;9.38;;;;;;;;;;6284104;28;20043;-74
2023/12/28 04:31:49;;;;;;;26.88;10.80;;;;;;;;;;6292512;28;20105;-75
2023/12/28 04:34:54;;;;;;;15.63;9.68;;;;;;;;;;6296806;28;20113;-74
2023/12/28 04:37:56;;;;;;;14.63;8.48;;;;;;;;;;6279141;28;20189;-74
2023/12/28 04:41:03;;;;;;;16.27;10.35;;;;;;;;;;6321274;28;20039;-74
2023/12/28 04:44:05;;;;;;;18.95;10.63;;;;;;;;;;6310276;28;20051;-75
2023/12/28 04:47:07;;;;;;;15.43;9.95;;;;;;;;;;6329568;28;20036;-75
2023/12/28 04:50:10;;;;;;;23.65;11.05;;;;;;;;;;6298843;28;20127;-74
2023/12/28 04:53:12;;;;;;;19.98;12.02;;;;;;;;;;6300614;28;20036;-74
2023/12/28 04:56:18;;;;;;;25.63;11.73;;;;;;;;;;6317785;28;20052;-75
2023/12/28 04:59:21;;;;;;;19.23;10.77;;;;;;;;;;6314106;28;20040;-75
2023/12/28 05:02:23;;;;;;;18.38;9.05;;;;;;;;;;6325397;28;20050;-74
2023/12/28 05:05:25;;;;;;;15.38;8.85;;;;;;;;;;6286282;28;20060;-74
2023/12/28 05:08:27;;;;;;;23.48;10.90;;;;;;;;;;6312519;28;20232;-74
2023/12/28 05:11:29;;;;;;;15.25;9.48;;;;;;;;;;6281484;28;20885;-74
2023/12/28 05:14:31;;;;;;;16.88;7.35;;;;;;;;;;6284940;28;20802;-74
2023/12/28 05:17:34;;;;;;;15.15;7.80;;;;;;;;;;6288770;28;20048;-75
2023/12/28 05:20:37;;;;;;;11.38;6.45;;;;;;;;;;6316299;28;20036;-73
2023/12/28 05:23:40;;;;;;;9.70;5.97;;;;;;;;;;6325586;28;20051;-75
2023/12/28 05:26:42;;;;;;;14.73;6.60;;;;;;;;;;6296016;28;20040;-74
2023/12/28 05:29:45;;;;;;;30.65;16.98;;;;;;;;;;6304434;28;20040;-74
2023/12/28 05:32:47;;;;;;;22.65;14.15;;;;;;;;;;6303485;28;20123;-74
2023/12/28 05:35:51;;;;;;;29.23;14.88;;;;;;;;;;6316920;28;20078;-73
2023/12/28 05:38:53;;;;;;;17.02;10.68;;;;;;;;;;6297207;28;20040;-74
2023/12/28 05:41:55;;;;;;;16.63;10.77;;;;;;;;;;6278247;28;20052;-74
2023/12/28 05:44:57;;;;;;;23.40;11.43;;;;;;;;;;6287328;28;20039;-73
2023/12/28 05:47:59;;;;;;;31.17;12.25;;;;;;;;;;6316285;28;20711;-71
2023/12/28 05:51:02;;;;;;;27.05;13.60;;;;;;;;;;6313049;28;20039;-73
2023/12/28 05:54:04;;;;;;;54.95;24.23;;;;;;;;;;6299312;28;20051;-72
2023/12/28 05:57:10;;;;;;;43.95;20.25;;;;;;;;;;6313707;28;20036;-74
2023/12/28 06:00:14;;;;;;;53.08;22.73;;;;;;;;;;6318963;28;20890;-74
2023/12/28 06:03:16;;;;;;;36.20;17.38;;;;;;;;;;6306034;28;20142;-74
2023/12/28 06:06:20;;;;;;;18.75;11.07;;;;;;;;;;6284818;28;20047;-74
2023/12/28 06:09:22;;;;;;;21.65;10.18;;;;;;;;;;6298624;28;20044;-73
2023/12/28 06:12:24;;;;;;;19.48;11.05;;;;;;;;;;6300149;28;20060;-73
2023/12/28 06:15:28;;;;;;;23.25;12.15;;;;;;;;;;6287941;28;20043;-74
2023/12/28 06:18:30;;;;;;;41.53;28.50;;;;;;;;;;6298221;28;20186;-73
2023/12/28 06:21:34;;;;;;;31.10;20.42;;;;;;;;;;6279708;28;20040;-73
2023/12/28 06:24:40;;;;;;;23.05;13.32;;;;;;;;;;6313025;28;20055;-74
2023/12/28 06:27:42;;;;;;;17.63;12.82;;;;;;;;;;6300043;28;20307;-73
2023/12/28 06:30:44;;;;;;;25.92;11.68;;;;;;;;;;6297473;28;20063;-74
2023/12/28 06:33:47;;;;;;;16.77;11.57;;;;;;;;;;6295840;28;20048;-75
2023/12/28 06:36:49;;;;;;;24.08;15.48;;;;;;;;;;6314931;28;20075;-80
2023/12/28 06:39:52;;;;;;;19.92;11.48;;;;;;;;;;6321796;28;20120;-75
2023/12/28 06:42:55;;;;;;;33.47;18.73;;;;;;;;;;6299428;28;20048;-76
2023/12/28 06:45:57;;;;;;;31.63;20.40;;;;;;;;;;6315452;28;20442;-75
2023/12/28 06:49:00;;;;;;;29.90;17.42;;;;;;;;;;6282354;28;20039;-74
2023/12/28 06:52:02;;;;;;;22.95;13.05;;;;;;;;;;6311490;28;20063;-76
2023/12/28 06:55:05;;;;;;;24.38;12.05;;;;;;;;;;6313733;28;20090;-74
2023/12/28 06:58:07;;;;;;;16.23;10.32;;;;;;;;;;6314683;28;20046;-75
2023/12/28 07:01:10;;;;;;;17.73;9.27;;;;;;;;;;6329137;27;20549;-74
2023/12/28 07:04:14;;;;;;;20.92;10.43;;;;;;;;;;6299245;28;20044;-73
2023/12/28 07:07:16;;;;;;;16.77;10.20;;;;;;;;;;6294207;28;20047;-74
2023/12/28 07:10:18;;;;;;;17.17;11.70;;;;;;;;;;6295905;28;20032;-74
2023/12/28 07:13:20;;;;;;;16.30;9.50;;;;;;;;;;6293802;28;20684;-73
2023/12/28 07:16:26;;;;;;;22.70;13.02;;;;;;;;;;6306518;28;20047;-73
2023/12/28 07:19:29;;;;;;;20.40;12.93;;;;;;;;;;6298986;28;20153;-73
2023/12/28 07:22:34;;;;;;;23.27;13.23;;;;;;;;;;6295641;28;20060;-74
2023/12/28 07:25:36;;;;;;;22.08;12.15;;;;;;;;;;6279578;28;20055;-74
2023/12/28 07:28:40;;;;;;;24.08;14.23;;;;;;;;;;6296446;28;20100;-74
2023/12/28 07:31:43;;;;;;;20.58;12.18;;;;;;;;;;6315142;28;20092;-74
2023/12/28 07:34:45;;;;;;;17.88;11.90;;;;;;;;;;6288490;28;20055;-74
2023/12/28 07:37:47;;;;;;;22.85;11.80;;;;;;;;;;6295893;28;20656;-74
2023/12/28 07:40:49;;;;;;;27.05;16.88;;;;;;;;;;6265277;28;20047;-74
2023/12/28 07:43:52;;;;;;;25.95;13.10;;;;;;;;;;6316857;28;20061;-74
2023/12/28 07:46:54;;;;;;;20.00;12.43;;;;;;;;;;6302000;28;20096;-74
2023/12/28 07:49:57;;;;;;;24.70;13.73;;;;;;;;;;6319657;28;20044;-73
2023/12/28 07:53:00;;;;;;;18.23;11.27;;;;;;;;;;6283260;28;20040;-73
2023/12/28 07:56:02;;;;;;;20.83;13.18;;;;;;;;;;6301868;28;20114;-73
2023/12/28 07:59:09;;;;;;;21.30;12.70;;;;;;;;;;6299727;28;20040;-73
2023/12/28 08:02:11;;;;;;;20.45;13.90;;;;;;;;;;6337477;27;20042;-73
2023/12/28 08:05:13;;;;;;;24.45;13.77;;;;;;;;;;6298644;28;20048;-73
2023/12/28 08:08:15;;;;;;;22.63;13.85;;;;;;;;;;6303617;28;20120;-73
2023/12/28 08:11:17;;;;;;;27.98;14.18;;;;;;;;;;6320136;28;20423;-74
2023/12/28 08:14:20;;;;;;;22.48;13.65;;;;;;;;;;6314472;28;20450;-74
2023/12/28 08:17:22;;;;;;;23.17;14.18;;;;;;;;;;6335109;27;20693;-74
2023/12/28 08:20:26;;;;;;;23.58;13.85;;;;;;;;;;6305615;28;20046;-74
2023/12/28 08:23:28;;;;;;;23.67;15.23;;;;;;;;;;6304657;28;20062;-74
2023/12/28 08:26:32;;;;;;;24.52;13.57;;;;;;;;;;6319285;28;20036;-74
2023/12/28 08:29:37;;;;;;;22.33;12.65;;;;;;;;;;6318281;28;20036;-73
2023/12/28 08:32:40;;;;;;;26.73;14.57;;;;;;;;;;6327320;28;20063;-74
2023/12/28 08:35:42;;;;;;;21.35;12.63;;;;;;;;;;6306022;28;20047;-74
2023/12/28 08:38:44;;;;;;;24.95;13.13;;;;;;;;;;6296777;28;20118;-75
2023/12/28 08:41:46;;;;;;;27.60;13.15;;;;;;;;;;6314055;28;20051;-75
2023/12/28 08:44:50;;;;;;;20.92;12.35;;;;;;;;;;6286400;28;20051;-74
2023/12/28 08:47:52;;;;;;;25.80;14.15;;;;;;;;;;6318908;28;20649;-73
2023/12/28 08:50:54;;;;;;;25.25;14.00;;;;;;;;;;6300354;28;20044;-73
2023/12/28 08:53:56;;;;;;;24.95;15.18;;;;;;;;;;6303089;28;20051;-74
2023/12/28 08:56:58;;;;;;;24.00;14.95;;;;;;;;;;6318868;28;20047;-74
2023/12/28 09:00:02;;;;;;;22.40;14.70;;;;;;;;;;6306669;28;20140;-75
2023/12/28 09:03:05;;;;;;;25.38;15.95;;;;;;;;;;6279294;28;20048;-74
2023/12/28 09:06:08;;;;;;;27.92;14.98;;;;;;;;;;6318743;28;20430;-75
2023/12/28 09:09:10;;;;;;;25.40;15.05;;;;;;;;;;6285418;28;20035;-75
2023/12/28 09:12:12;;;;;;;29.38;17.05;;;;;;;;;;6299954;28;20088;-75
2023/12/28 09:15:14;;;;;;;23.02;15.60;;;;;;;;;;6279754;28;20502;-74
2023/12/28 09:18:17;;;;;;;27.63;16.40;;;;;;;;;;6323482;28;20052;-75
2023/12/28 09:21:19;;;;;;;26.77;16.95;;;;;;;;;;6320302;28;20047;-75
2023/12/28 09:24:22;;;;;;;23.30;15.48;;;;;;;;;;6302436;28;20741;-75
2023/12/28 09:27:24;;;;;;;22.65;12.82;;;;;;;;;;6279230;28;20623;-74
2023/12/28 09:30:27;;;;;;;28.92;19.02;;;;;;;;;;6280367;28;20040;-74
2023/12/28 09:33:31;;;;;;;24.02;14.10;;;;;;;;;;6297194;28;20727;-74
2023/12/28 09:36:34;;;;;;;22.08;13.32;;;;;;;;;;6307597;28;20616;-76
2023/12/28 09:39:36;;;;;;;27.25;17.48;;;;;;;;;;6315360;28;20090;-75
2023/12/28 09:42:46;;;;;;;23.35;14.60;;;;;;;;;;6267996;28;20048;-74
2023/12/28 09:45:48;;;;;;;18.83;10.60;;;;;;;;;;6300590;28;20104;-74
2023/12/28 09:48:53;;;;;;;21.92;13.73;;;;;;;;;;6295469;28;20066;-75
2023/12/28 09:51:58;;;;;;;22.60;12.93;;;;;;;;;;6300589;28;20040;-75
2023/12/28 09:55:01;;;;;;;20.13;13.38;;;;;;;;;;6294132;28;20096;-75
2023/12/28 09:58:05;;;;;;;25.23;13.80;;;;;;;;;;6285193;28;20050;-75
2023/12/28 10:01:09;;;;;;;23.67;12.57;;;;;;;;;;6303458;28;20750;-74
2023/12/28 10:04:11;;;;;;;24.63;13.95;;;;;;;;;;6296756;28;20570;-74
2023/12/28 10:07:13;;;;;;;24.08;14.80;;;;;;;;;;6283590;28;20553;-75
2023/12/28 10:10:16;;;;;;;20.67;15.02;;;;;;;;;;6296447;28;20100;-75
2023/12/28 10:13:19;;;;;;;25.50;15.63;;;;;;;;;;6276794;28;20829;-75
2023/12/28 10:16:21;;;;;;;25.75;15.07;;;;;;;;;;6293880;28;20059;-75
2023/12/28 10:19:25;;;;;;;18.60;11.27;;;;;;;;;;6320859;28;20491;-73
2023/12/28 10:22:27;;;;;;;21.92;13.90;;;;;;;;;;6291687;28;20040;-73
2023/12/28 10:25:32;;;;;;;22.25;14.35;;;;;;;;;;6312455;28;20529;-74
2023/12/28 10:28:38;;;;;;;22.30;15.20;;;;;;;;;;6298965;28;20047;-74
2023/12/28 10:31:49;;;;;;;23.73;12.80;;;;;;;;;;6295497;28;20865;-73
2023/12/28 10:34:53;;;;;;;23.83;15.45;;;;;;;;;;6308640;28;20044;-74
2023/12/28 10:38:00;;;;;;;21.95;13.85;;;;;;;;;;6314943;28;20059;-74
2023/12/28 10:41:07;;;;;;;22.15;15.18;;;;;;;;;;6298336;28;20542;-73
2023/12/28 10:44:11;;;;;;;24.25;15.25;;;;;;;;;;6321618;28;20047;-78
2023/12/28 10:47:18;;;;;;;25.45;15.02;;;;;;;;;;6283078;28;20052;-79
2023/12/28 10:50:20;;;;;;;21.77;14.02;;;;;;;;;;6289163;28;20044;-79
2023/12/28 10:53:39;;;;;;;17.70;12.48;;;;;;;;;;6305921;28;20047;-78
2023/12/28 10:56:49;;;;;;;23.05;13.57;;;;;;;;;;6272854;28;20052;-76
2023/12/28 10:59:51;;;;;;;26.02;14.93;;;;;;;;;;6277051;28;20438;-77
2023/12/28 11:02:57;;;;;;;28.17;16.35;;;;;;;;;;6310959;28;20051;-77
2023/12/28 11:05:59;;;;;;;25.73;13.32;;;;;;;;;;6272540;28;20047;-78
2023/12/28 11:09:03;;;;;;;23.77;14.65;;;;;;;;;;6298994;28;20043;-77
2023/12/28 11:12:07;;;;;;;;;;;;;;;;;;6284886;28;20542;-78
2023/12/28 11:15:11;;;;;;;20.95;13.77;;;;;;;;;;6301066;28;19919;-78
2023/12/28 11:18:18;;;;;;;22.50;16.10;;;;;;;;;;6265700;28;20455;-77
2023/12/28 11:21:23;;;;;;;22.13;13.77;;;;;;;;;;6278062;28;20074;-78
2023/12/28 11:24:27;;;;;;;22.63;13.95;;;;;;;;;;6314824;28;20104;-79
2023/12/28 11:27:34;;;;;;;19.20;13.05;;;;;;;;;;6284126;28;20074;-79
2023/12/28 11:30:37;;;;;;;17.63;12.38;;;;;;;;;;6278466;28;20177;-79
2023/12/28 11:33:44;;;;;;;20.77;14.52;;;;;;;;;;6316153;28;20526;-79
2023/12/28 11:36:54;;;;;;;21.35;11.93;;;;;;;;;;6292516;28;20107;-79
2023/12/28 11:39:59;;;;;;;17.90;10.32;;;;;;;;;;6310151;28;20046;-78
2023/12/28 11:43:02;;;;;;;20.58;11.05;;;;;;;;;;6321812;28;20055;-78
2023/12/28 11:46:07;;;;;;;17.13;11.23;;;;;;;;;;6310879;28;20036;-77
2023/12/28 11:49:09;;;;;;;19.38;12.68;;;;;;;;;;6294337;28;20039;-79
2023/12/28 11:52:23;;;;;;;19.52;12.48;;;;;;;;;;6298176;28;20036;-79
2023/12/28 11:55:26;;;;;;;24.98;13.50;;;;;;;;;;6275892;28;20146;-79
2023/12/28 11:58:28;;;;;;;18.70;11.88;;;;;;;;;;6321661;28;20830;-78
2023/12/28 12:01:30;;;;;;;19.13;11.75;;;;;;;;;;6270039;28;20051;-78
2023/12/28 12:04:34;;;;;;;21.33;12.93;;;;;;;;;;6285108;28;20450;-78
2023/12/28 12:07:36;;;;;;;19.15;11.75;;;;;;;;;;6307086;28;20186;-79
2023/12/28 12:10:38;;;;;;;23.73;13.25;;;;;;;;;;6286675;28;20040;-78
2023/12/28 12:13:42;;;;;;;20.58;13.00;;;;;;;;;;6315682;28;20427;-80
2023/12/28 12:16:45;;;;;;;26.25;18.67;;;;;;;;;;6305295;28;20197;-79
2023/12/28 12:19:49;;;;;;;21.33;15.32;;;;;;;;;;6281672;28;20414;-79
2023/12/28 12:22:52;;;;;;;19.02;10.80;;;;;;;;;;6300610;28;20131;-77
2023/12/28 12:25:54;;;;;;;19.50;11.27;;;;;;;;;;6312866;28;20138;-78
2023/12/28 12:28:56;;;;;;;18.42;11.90;;;;;;;;;;6287321;28;20048;-78
2023/12/28 12:31:58;;;;;;;15.70;10.15;;;;;;;;;;6272593;28;20598;-79
2023/12/28 12:35:03;;;;;;;15.05;9.88;;;;;;;;;;6296666;28;20130;-79
2023/12/28 12:38:06;;;;;;;17.85;12.15;;;;;;;;;;6283902;28;20048;-79
2023/12/28 12:41:11;;;;;;;20.08;11.55;;;;;;;;;;6293870;28;20743;-79
2023/12/28 12:44:14;;;;;;;17.63;10.93;;;;;;;;;;6312752;28;20044;-78
2023/12/28 12:47:17;;;;;;;16.42;10.02;;;;;;;;;;6277681;28;20047;-79
2023/12/28 12:50:21;;;;;;;14.40;11.48;;;;;;;;;;6301114;28;21194;-79
2023/12/28 12:53:24;;;;;;;14.38;9.18;;;;;;;;;;6315398;28;20109;-79
2023/12/28 12:56:27;;;;;;;15.07;9.02;;;;;;;;;;6299980;28;20043;-79
2023/12/28 12:59:30;;;;;;;15.77;10.57;;;;;;;;;;6318498;28;20048;-79
2023/12/28 13:02:33;;;;;;;15.77;8.43;;;;;;;;;;6295472;28;20237;-80
2023/12/28 13:05:37;;;;;;;21.33;11.77;;;;;;;;;;6286641;28;20032;-80
2023/12/28 13:08:39;;;;;;;12.35;7.15;;;;;;;;;;6302291;28;20048;-81
2023/12/28 13:11:42;;;;;;;12.32;7.70;;;;;;;;;;6299885;28;20569;-79
2023/12/28 13:14:44;;;;;;;14.45;8.30;;;;;;;;;;6299228;28;20589;-79
2023/12/28 13:17:46;;;;;;;12.80;7.78;;;;;;;;;;6291129;28;20104;-79
2023/12/28 13:20:49;;;;;;;13.13;8.65;;;;;;;;;;6300032;28;20055;-78
2023/12/28 13:23:51;;;;;;;14.15;9.50;;;;;;;;;;6315983;28;20043;-79
2023/12/28 13:26:54;;;;;;;13.00;7.50;;;;;;;;;;6308383;28;20043;-78
2023/12/28 13:29:56;;;;;;;11.40;7.60;;;;;;;;;;6319338;28;20519;-79
2023/12/28 13:33:00;;;;;;;12.68;7.60;;;;;;;;;;6282235;28;20052;-86
2023/12/28 13:36:03;;;;;;;13.15;8.10;;;;;;;;;;6294825;28;20123;-79
2023/12/28 13:39:14;;;;;;;15.75;7.05;;;;;;;;;;6316018;28;20547;-79
2023/12/28 13:42:16;;;;;;;16.00;9.13;;;;;;;;;;6295078;28;20043;-78
2023/12/28 13:45:18;;;;;;;10.07;6.95;;;;;;;;;;6297271;28;20056;-79
2023/12/28 13:48:21;;;;;;;12.73;7.80;;;;;;;;;;6321148;28;20040;-78
2023/12/28 13:51:23;;;;;;;15.13;6.97;;;;;;;;;;6298970;28;20036;-78
2023/12/28 13:54:25;;;;;;;13.50;7.50;;;;;;;;;;6299719;28;20498;-78
2023/12/28 13:57:28;;;;;;;11.13;7.72;;;;;;;;;;6299165;28;20120;-76
2023/12/28 14:00:30;;;;;;;11.98;8.20;;;;;;;;;;6312286;28;20559;-76
2023/12/28 14:03:33;;;;;;;12.60;7.47;;;;;;;;;;6297688;28;20140;-77
2023/12/28 14:06:35;;;;;;;14.55;8.95;;;;;;;;;;6316640;28;20068;-78
2023/12/28 14:09:38;;;;;;;15.85;8.80;;;;;;;;;;6275823;28;20056;-77
2023/12/28 14:12:40;;;;;;;17.08;10.48;;;;;;;;;;6304634;28;20047;-78
2023/12/28 14:15:43;;;;;;;15.80;8.10;;;;;;;;;;6296099;28;20051;-79
2023/12/28 14:18:46;;;;;;;11.93;7.97;;;;;;;;;;6297504;28;20047;-74
2023/12/28 14:21:49;;;;;;;13.32;8.77;;;;;;;;;;6284892;28;20052;-74
2023/12/28 14:24:52;;;;;;;14.30;8.15;;;;;;;;;;6282479;28;20051;-73
2023/12/28 14:27:55;;;;;;;14.95;8.85;;;;;;;;;;6308552;28;20063;-74
2023/12/28 14:30:58;;;;;;;16.90;9.73;;;;;;;;;;6316045;28;20039;-74
2023/12/28 14:34:01;;;;;;;16.27;10.02;;;;;;;;;;6297658;28;20043;-74
2023/12/28 14:37:04;;;;;;;25.13;12.57;;;;;;;;;;6315762;28;20082;-75
2023/12/28 14:40:07;;;;;;;17.77;11.15;;;;;;;;;;6339871;27;20044;-75
2023/12/28 14:43:10;;;;;;;20.65;11.93;;;;;;;;;;6327223;28;20058;-76
2023/12/28 14:46:12;;;;;;;22.50;10.95;;;;;;;;;;6315867;28;20043;-76
2023/12/28 14:49:14;;;;;;;26.02;13.25;;;;;;;;;;6312517;28;20040;-75
2023/12/28 14:52:17;;;;;;;16.33;12.02;;;;;;;;;;6301691;28;20698;-74
2023/12/28 14:55:19;;;;;;;25.50;11.52;;;;;;;;;;6304814;28;20565;-74
2023/12/28 14:58:22;;;;;;;18.17;10.77;;;;;;;;;;6329786;27;20648;-74
2023/12/28 15:01:24;;;;;;;28.58;12.60;;;;;;;;;;6273534;28;20051;-75
2023/12/28 15:04:26;;;;;;;22.98;11.93;;;;;;;;;;6311020;28;20139;-76
2023/12/28 15:07:29;;;;;;;14.93;8.88;;;;;;;;;;6303213;28;20058;-76
2023/12/28 15:10:31;;;;;;;25.30;11.05;;;;;;;;;;6292595;28;20094;-76
2023/12/28 15:13:34;;;;;;;21.88;13.15;;;;;;;;;;6318976;28;20056;-75
2023/12/28 15:16:36;;;;;;;17.98;8.52;;;;;;;;;;6312783;28;20052;-76
2023/12/28 15:19:38;;;;;;;20.92;10.40;;;;;;;;;;6283994;28;20384;-76
2023/12/28 15:22:41;;;;;;;33.35;13.00;;;;;;;;;;6278299;28;20040;-76
2023/12/28 15:25:43;;;;;;;26.05;11.27;;;;;;;;;;6292152;28;20047;-75
2023/12/28 15:28:47;;;;;;;22.60;11.73;;;;;;;;;;6280282;28;20068;-75
2023/12/28 15:31:50;;;;;;;21.75;10.77;;;;;;;;;;6317092;28;20056;-76
2023/12/28 15:34:52;;;;;;;19.40;9.68;;;;;;;;;;6310946;28;20228;-76
2023/12/28 15:37:55;;;;;;;21.48;10.27;;;;;;;;;;6311403;28;20139;-76
2023/12/28 15:40:58;;;;;;;16.90;8.85;;;;;;;;;;6288873;28;20044;-77
2023/12/28 15:44:00;;;;;;;16.98;9.27;;;;;;;;;;6314993;28;20210;-77
2023/12/28 15:47:03;;;;;;;23.63;8.70;;;;;;;;;;6278902;28;20047;-76
2023/12/28 15:50:05;;;;;;;17.15;10.32;;;;;;;;;;6294568;28;20043;-76
2023/12/28 15:53:08;;;;;;;20.20;10.27;;;;;;;;;;6289589;28;20506;-75
2023/12/28 15:56:10;;;;;;;30.15;12.02;;;;;;;;;;6287192;28;20586;-77
2023/12/28 15:59:20;;;;;;;25.23;15.45;;;;;;;;;;6312172;28;20753;-77
2023/12/28 16:02:30;;;;;;;20.98;12.60;;;;;;;;;;6278375;28;20040;-77
2023/12/28 16:05:32;;;;;;;27.15;15.60;;;;;;;;;;6312741;28;20047;-75
2023/12/28 16:08:34;;;;;;;34.97;16.95;;;;;;;;;;6305743;28;20132;-76
2023/12/28 16:11:38;;;;;;;24.27;13.93;;;;;;;;;;6314437;28;20789;-77
2023/12/28 16:14:40;;;;;;;22.13;13.02;;;;;;;;;;6296674;28;20055;-77
2023/12/28 16:17:42;;;;;;;20.35;13.55;;;;;;;;;;6310753;28;20048;-76
2023/12/28 16:20:45;;;;;;;18.40;11.27;;;;;;;;;;6315026;28;20048;-77
2023/12/28 16:23:49;;;;;;;21.17;9.85;;;;;;;;;;6319208;28;20054;-76
2023/12/28 16:26:53;;;;;;;14.75;10.50;;;;;;;;;;6296616;28;20148;-76
2023/12/28 16:29:55;;;;;;;21.88;11.80;;;;;;;;;;6292758;28;20112;-76
2023/12/28 16:32:57;;;;;;;27.77;11.95;;;;;;;;;;6291992;28;20100;-76
2023/12/28 16:36:01;;;;;;;15.48;9.40;;;;;;;;;;6301487;28;20044;-75
2023/12/28 16:39:03;;;;;;;16.55;8.82;;;;;;;;;;6282790;28;20047;-76
2023/12/28 16:42:05;;;;;;;26.40;8.93;;;;;;;;;;6301337;28;20047;-76
2023/12/28 16:45:07;;;;;;;15.02;7.40;;;;;;;;;;6279358;28;20047;-75
2023/12/28 16:48:10;;;;;;;24.60;12.30;;;;;;;;;;6302695;28;20420;-77
2023/12/28 16:51:12;;;;;;;27.20;16.35;;;;;;;;;;6292936;28;20059;-77
2023/12/28 16:54:18;;;;;;;15.20;9.18;;;;;;;;;;6308982;28;20206;-77
2023/12/28 16:57:20;;;;;;;18.45;10.00;;;;;;;;;;6302865;28;20040;-77
2023/12/28 17:00:25;;;;;;;17.67;9.88;;;;;;;;;;6316688;28;20051;-76
2023/12/28 17:03:28;;;;;;;17.83;10.75;;;;;;;;;;6314197;28;20117;-77
2023/12/28 17:06:35;;;;;;;15.75;10.68;;;;;;;;;;6316114;28;20550;-77
2023/12/28 17:09:37;;;;;;;14.43;9.48;;;;;;;;;;6327415;27;20055;-77
2023/12/28 17:12:43;;;;;;;17.08;10.20;;;;;;;;;;6312507;28;20352;-77
2023/12/28 17:15:45;;;;;;;60.00;22.10;;;;;;;;;;6296235;28;20139;-77
2023/12/28 17:18:49;;;;;;;37.38;16.30;;;;;;;;;;6297300;28;20040;-76
2023/12/28 17:21:57;;;;;;;27.40;13.50;;;;;;;;;;6291781;28;20040;-77
2023/12/28 17:25:28;;;;;;;22.23;14.38;;;;;;;;;;6278705;28;20040;-77
2023/12/28 17:28:47;;;;;;;24.17;13.15;;;;;;;;;;6291325;28;20154;-76
2023/12/28 17:31:50;;;;;;;23.92;13.50;;;;;;;;;;6275475;28;20051;-76
2023/12/28 17:34:52;;;;;;;18.70;11.05;;;;;;;;;;6277912;28;20036;-76
2023/12/28 17:37:56;;;;;;;23.00;14.15;;;;;;;;;;6304404;28;20745;-76
2023/12/28 17:40:59;;;;;;;43.70;28.35;;;;;;;;;;6304603;28;20058;-77
2023/12/28 17:44:06;;;;;;;32.00;18.27;;;;;;;;;;6288422;28;20719;-77
2023/12/28 17:47:16;;;;;;;28.98;17.98;;;;;;;;;;6301979;28;20059;-77
2023/12/28 17:50:19;;;;;;;30.75;18.30;;;;;;;;;;6294934;28;20468;-77
2023/12/28 17:53:23;;;;;;;43.35;25.58;;;;;;;;;;6297121;28;20036;-77